Time;durP1;ratioP1;P1;durP2;ratioP2;P2;SDS_P1;SDS_P2;PMS_P1;PMS_P2;Temp;Humidity;BMP_temperature;BMP_pressure;BME280_temperature;BME280_humidity;BME280_pressure;Samples;Min_cycle;Max_cycle;Signal;HPM_P1;HPM_P2
2023/01/27 00:02:29;;;;;;;15.18;9.23;;;;;;;5.20;59.46;100924.81;4858226;29;20269;-82
2023/01/27 00:05:16;;;;;;;14.25;7.85;;;;;;;5.15;59.64;100919.00;4854923;29;20052;-80
2023/01/27 00:08:08;;;;;;;12.18;7.72;;;;;;;4.56;60.06;100820.84;4864844;28;20305;-82
2023/01/27 00:13:58;;;;;;;15.25;8.27;;;;;;;5.22;59.86;100930.84;4842554;29;20286;-81
2023/01/27 00:16:38;;;;;;;19.27;8.05;;;;;;;5.04;59.92;100898.56;4860448;28;20385;-80
2023/01/27 00:19:23;;;;;;;14.20;8.52;;;;;;;5.18;59.78;100916.16;4852461;29;20071;-81
2023/01/27 00:25:02;;;;;;;16.60;9.20;;;;;;;5.13;60.10;100918.22;4863927;29;20048;-80
2023/01/27 00:27:39;;;;;;;16.00;9.18;;;;;;;5.09;60.88;100912.28;4873952;29;20066;-81
2023/01/27 00:30:18;;;;;;;16.90;9.18;;;;;;;4.96;60.11;100894.72;4854651;29;20376;-79
2023/01/27 00:36:15;;;;;;;13.00;8.68;;;;;;;4.99;60.25;100915.59;4852871;29;20610;-78
2023/01/27 00:38:52;;;;;;;16.85;9.50;;;;;;;4.95;60.54;100914.06;4901901;28;20052;-78
2023/01/27 00:41:27;;;;;;;23.30;10.10;;;;;;;5.04;59.99;100910.88;4909967;28;20118;-77
2023/01/27 00:44:12;;;;;;;15.82;9.38;;;;;;;4.76;59.82;100867.84;4859071;29;20137;-79
2023/01/27 00:46:49;;;;;;;15.52;10.05;;;;;;;4.80;60.40;100894.81;4865098;28;20420;-79
2023/01/27 00:49:23;;;;;;;23.05;8.88;;;;;;;4.76;60.04;100882.75;4852594;29;20453;-79
2023/01/27 00:52:00;;;;;;;17.23;8.98;;;;;;;4.96;59.95;100915.78;4872866;29;20048;-79
2023/01/27 00:54:42;;;;;;;17.48;9.38;;;;;;;4.63;60.39;100882.66;4871160;29;20352;-78
2023/01/27 00:57:15;;;;;;;20.45;9.85;;;;;;;4.82;60.58;100920.06;4885115;29;20047;-79
2023/01/27 00:59:49;;;;;;;18.58;9.65;;;;;;;4.79;61.40;100930.78;4857819;29;20291;-77
2023/01/27 01:02:27;;;;;;;17.92;9.73;;;;;;;4.76;60.99;100920.47;4842915;28;20212;-79
2023/01/27 01:04:59;;;;;;;20.80;9.50;;;;;;;4.71;61.56;100922.50;4861215;29;20114;-79
2023/01/27 01:07:26;;;;;;;16.98;9.55;;;;;;;4.62;61.13;100902.00;4859087;29;20376;-79
2023/01/27 01:10:17;;;;;;;13.20;9.00;;;;;;;4.69;61.12;100930.50;4862084;29;20485;-78
2023/01/27 01:12:49;;;;;;;19.33;10.50;;;;;;;4.56;61.65;100902.38;4862058;28;20039;-79
2023/01/27 01:15:24;;;;;;;18.48;10.10;;;;;;;4.65;61.12;100930.75;4875572;28;20043;-79
2023/01/27 01:17:53;;;;;;;20.45;10.35;;;;;;;4.45;61.43;100911.72;4873745;28;20058;-77
2023/01/27 01:20:29;;;;;;;18.08;8.57;;;;;;;4.51;61.19;100910.53;4886700;28;20468;-78
2023/01/27 01:23:20;;;;;;;17.02;9.60;;;;;;;4.57;61.17;100930.38;4861928;28;20304;-78
2023/01/27 01:26:00;;;;;;;27.92;9.77;;;;;;;4.57;61.33;100930.38;4878432;28;20405;-78
2023/01/27 01:28:42;;;;;;;18.17;10.45;;;;;;;4.45;61.28;100921.41;4879523;28;20205;-79
2023/01/27 01:31:20;;;;;;;16.60;9.63;;;;;;;4.43;61.63;100925.91;4912727;28;20459;-77
2023/01/27 01:33:52;;;;;;;17.02;9.88;;;;;;;4.53;61.87;100944.63;4845246;29;20079;-79
2023/01/27 01:36:32;;;;;;;25.10;11.10;;;;;;;4.45;61.50;100927.50;4848908;29;20070;-79
2023/01/27 01:39:14;;;;;;;21.17;11.05;;;;;;;4.50;61.60;100941.22;4855225;29;20325;-79
2023/01/27 01:41:51;;;;;;;20.88;10.52;;;;;;;4.57;61.53;100941.72;4873791;28;20576;-78
2023/01/27 01:44:35;;;;;;;16.33;9.68;;;;;;;4.48;61.34;100926.47;4869179;28;20547;-80
2023/01/27 01:47:12;;;;;;;;;;;;;;;4.47;61.62;100932.69;4877855;28;20047;-81
2023/01/27 01:49:57;;;;;;;18.17;10.52;;;;;;;4.54;61.47;100938.41;4864936;29;19930;-78
2023/01/27 01:52:31;;;;;;;26.45;10.48;;;;;;;4.54;61.51;100946.31;4860675;29;20324;-76
2023/01/27 01:55:06;;;;;;;14.77;10.00;;;;;;;4.52;61.31;100924.53;4839528;29;20300;-80
2023/01/27 01:57:41;;;;;;;14.77;9.38;;;;;;;4.54;61.53;100935.78;4871720;29;20441;-80
2023/01/27 02:00:14;;;;;;;23.40;10.80;;;;;;;4.45;61.55;100930.13;4872944;29;20102;-80
2023/01/27 02:02:42;;;;;;;17.80;10.35;;;;;;;4.37;62.02;100908.72;4898120;28;20070;-80
2023/01/27 02:05:45;;;;;;;21.65;9.88;;;;;;;4.41;61.36;100914.63;4912370;29;20123;-78
2023/01/27 02:08:26;;;;;;;18.88;11.02;;;;;;;4.57;61.06;100925.94;4842253;29;20519;-79
2023/01/27 02:11:02;;;;;;;19.55;9.93;;;;;;;4.32;61.52;100895.00;4887220;29;20055;-80
2023/01/27 02:13:38;;;;;;;25.38;10.60;;;;;;;4.49;61.33;100925.53;4898339;28;20145;-79
2023/01/27 02:16:25;;;;;;;15.10;10.38;;;;;;;4.27;61.19;100883.88;4879368;28;20661;-78
2023/01/27 02:19:03;;;;;;;19.40;11.13;;;;;;;4.45;61.36;100924.88;4910003;28;20436;-78
2023/01/27 02:21:35;;;;;;;21.15;10.40;;;;;;;4.50;61.84;100929.88;4900316;28;20382;-77
2023/01/27 02:24:11;;;;;;;24.42;10.70;;;;;;;4.50;61.53;100930.72;4910375;28;20058;-79
2023/01/27 02:26:51;;;;;;;17.13;10.38;;;;;;;4.44;61.45;100920.56;4891698;28;20070;-79
2023/01/27 02:29:27;;;;;;;20.35;10.93;;;;;;;4.15;62.17;100874.06;4907111;28;20046;-77
2023/01/27 02:32:05;;;;;;;17.13;10.35;;;;;;;4.12;62.41;100876.88;4874357;28;20195;-79
2023/01/27 02:34:38;;;;;;;19.73;11.23;;;;;;;3.71;61.88;100798.69;4844874;29;20823;-78
2023/01/27 02:37:08;;;;;;;21.00;10.98;;;;;;;4.31;62.28;100906.44;4872572;29;20054;-78
2023/01/27 02:39:43;;;;;;;18.33;10.88;;;;;;;4.41;62.03;100925.13;4871887;29;20051;-77
2023/01/27 02:42:15;;;;;;;21.58;11.63;;;;;;;4.11;61.87;100885.72;4879807;28;20047;-77
2023/01/27 02:44:43;;;;;;;18.23;10.77;;;;;;;4.28;62.26;100909.25;4909836;28;20054;-76
2023/01/27 02:47:09;;;;;;;23.67;11.32;;;;;;;4.17;61.95;100895.84;4912168;28;20507;-76
2023/01/27 02:49:39;;;;;;;20.65;11.30;;;;;;;4.29;62.10;100917.00;4871387;29;20047;-77
2023/01/27 02:52:11;;;;;;;20.88;11.55;;;;;;;4.17;61.75;100895.84;4894340;29;20051;-78
2023/01/27 02:54:44;;;;;;;16.52;11.45;;;;;;;4.10;61.87;100884.00;4877541;29;20474;-79
2023/01/27 02:57:22;;;;;;;20.70;11.77;;;;;;;4.27;61.86;100913.66;4897927;29;20129;-78
2023/01/27 02:59:54;;;;;;;18.40;10.88;;;;;;;4.26;61.76;100916.38;4897769;29;20134;-77
2023/01/27 03:02:29;;;;;;;19.60;10.80;;;;;;;4.31;62.38;100916.94;4901090;28;20273;-77
2023/01/27 03:04:57;;;;;;;25.55;12.45;;;;;;;4.17;62.07;100885.34;4919788;29;20126;-77
2023/01/27 03:07:23;;;;;;;20.88;11.88;;;;;;;4.14;61.89;100890.78;4901914;29;20410;-77
2023/01/27 03:09:57;;;;;;;18.40;11.52;;;;;;;4.03;61.87;100873.03;4889838;29;20056;-79
2023/01/27 03:12:35;;;;;;;20.98;11.82;;;;;;;3.96;61.59;100853.28;4899013;29;20139;-79
2023/01/27 03:18:10;;;;;;;20.27;11.40;;;;;;;4.27;62.11;100913.66;4906924;29;20778;-77
2023/01/27 03:20:46;;;;;;;23.42;11.75;;;;;;;3.92;62.00;100871.00;4904439;29;20053;-81
2023/01/27 03:23:15;;;;;;;21.40;11.85;;;;;;;4.12;62.24;100900.53;4894589;29;20458;-79
2023/01/27 03:25:49;;;;;;;20.27;11.50;;;;;;;3.88;62.79;100861.59;4918373;28;20051;-80
2023/01/27 03:28:24;;;;;;;;;;;;;;;4.13;63.03;100912.75;4885818;29;20061;-78
2023/01/27 03:30:58;;;;;;;22.23;11.05;;;;;;;4.16;62.51;100913.41;4899005;29;19927;-79
2023/01/27 03:33:25;;;;;;;16.73;10.10;;;;;;;3.70;62.70;100845.09;4897596;29;20353;-79
2023/01/27 03:47:27;;;;;;;22.52;11.90;;;;;;;3.85;63.10;100888.03;4904907;28;20166;-80
2023/01/27 03:49:59;;;;;;;24.10;12.45;;;;;;;4.04;63.14;100911.50;4904562;29;20341;-78
2023/01/27 03:52:27;;;;;;;22.42;12.55;;;;;;;3.80;63.08;100864.66;4916813;28;20055;-76
2023/01/27 03:55:00;;;;;;;19.02;12.07;;;;;;;3.69;62.91;100853.94;4911689;28;20062;-78
2023/01/27 03:57:34;;;;;;;18.52;11.10;;;;;;;3.83;62.83;100879.38;4915719;28;20336;-78
2023/01/27 04:00:11;;;;;;;21.05;11.65;;;;;;;3.97;62.12;100895.22;4928266;29;20055;-77
2023/01/27 04:08:33;;;;;;;23.60;11.07;;;;;;;4.18;61.37;100913.34;4896873;29;20051;-75
2023/01/27 04:14:02;;;;;;;20.50;10.93;;;;;;;4.21;61.26;100913.16;4915295;29;20240;-78
2023/01/27 04:16:38;;;;;;;19.48;11.07;;;;;;;4.23;60.40;100919.19;4909236;28;20054;-77
2023/01/27 04:19:09;;;;;;;20.90;11.10;;;;;;;3.79;60.60;100843.75;4933305;28;20051;-78
2023/01/27 04:21:40;;;;;;;17.42;10.85;;;;;;;4.12;60.33;100893.50;4907442;29;20051;-78
2023/01/27 04:24:26;;;;;;;18.92;12.05;;;;;;;4.31;60.86;100922.19;4906594;29;20279;-79
2023/01/27 04:26:59;;;;;;;22.38;12.80;;;;;;;4.30;61.35;100928.41;4894213;29;20255;-77
2023/01/27 04:29:39;;;;;;;20.92;11.35;;;;;;;4.21;61.20;100919.25;4906565;28;20055;-78
2023/01/27 04:32:11;;;;;;;;;;;;;;;4.22;62.00;100914.84;4914937;28;20044;-78
2023/01/27 04:34:42;;;;;;;20.48;11.48;;;;;;;3.86;61.47;100850.34;4909141;28;20099;-77
2023/01/27 04:37:09;;;;;;;21.75;11.50;;;;;;;4.26;61.38;100911.09;4896734;28;20326;-77
2023/01/27 04:39:36;;;;;;;20.67;12.32;;;;;;;4.27;61.17;100912.78;4847313;29;20086;-77
2023/01/27 04:42:03;;;;;;;17.27;10.80;;;;;;;4.31;60.81;100924.81;4881671;29;20663;-79
2023/01/27 04:44:36;;;;;;;20.08;12.68;;;;;;;4.12;60.82;100887.41;4900300;29;20059;-81
2023/01/27 04:47:11;;;;;;;21.88;11.57;;;;;;;4.18;60.64;100908.09;4881780;29;20054;-76
2023/01/27 04:49:46;;;;;;;19.30;12.68;;;;;;;4.10;61.29;100905.88;4916206;28;20062;-79
2023/01/27 04:52:12;;;;;;;19.23;11.32;;;;;;;4.23;60.92;100920.00;4911810;28;20246;-79
2023/01/27 04:54:39;;;;;;;20.73;11.90;;;;;;;4.18;61.57;100916.81;4899084;29;20251;-77
2023/01/27 04:57:15;;;;;;;22.33;12.07;;;;;;;4.02;61.01;100892.34;4888112;29;20062;-81
2023/01/27 04:59:46;;;;;;;17.60;11.45;;;;;;;4.11;61.21;100904.94;4876662;29;20047;-79
2023/01/27 05:02:21;;;;;;;21.48;11.93;;;;;;;4.12;61.50;100914.50;4897820;28;20058;-78
2023/01/27 05:04:57;;;;;;;17.30;11.07;;;;;;;4.09;61.97;100919.13;4887318;29;20129;-79
2023/01/27 05:07:34;;;;;;;22.20;11.57;;;;;;;4.05;62.13;100923.69;4901623;29;20054;-79
2023/01/27 05:10:14;;;;;;;19.10;11.07;;;;;;;3.76;61.97;100875.41;4896787;28;20066;-79
2023/01/27 05:12:48;;;;;;;20.13;12.13;;;;;;;3.92;62.04;100896.41;4930779;28;20122;-78
2023/01/27 05:15:32;;;;;;;21.25;12.00;;;;;;;3.82;62.23;100890.84;4913262;28;20087;-79
2023/01/27 05:18:03;;;;;;;23.33;11.57;;;;;;;3.84;62.04;100900.31;4908287;29;20518;-80
2023/01/27 05:20:30;;;;;;;22.05;11.80;;;;;;;3.71;62.89;100891.41;4914800;28;20058;-79
2023/01/27 05:23:33;;;;;;;22.45;11.90;;;;;;;3.88;62.25;100927.25;4904542;29;20043;-78
2023/01/27 05:25:51;;;;;;;22.05;11.65;;;;;;;3.89;62.04;100909.72;4934543;28;20084;-79
2023/01/27 05:28:21;;;;;;;19.73;11.07;;;;;;;3.89;61.83;100912.38;4945288;28;20062;-79
2023/01/27 05:31:00;;;;;;;18.63;12.68;;;;;;;3.92;61.57;100917.44;4913424;28;20043;-76
2023/01/27 05:33:27;;;;;;;20.45;12.75;;;;;;;4.07;61.47;100943.66;4924173;28;20504;-77
2023/01/27 05:36:01;;;;;;;21.95;11.95;;;;;;;3.99;61.56;100934.53;4927935;28;20496;-78
2023/01/27 05:38:33;;;;;;;23.10;13.23;;;;;;;3.95;61.93;100936.47;4906391;28;20039;-78
2023/01/27 05:41:20;;;;;;;18.30;11.50;;;;;;;3.85;61.31;100924.81;4921775;28;20050;-78
2023/01/27 05:43:53;;;;;;;23.92;12.30;;;;;;;4.04;61.34;100943.00;4905551;29;20443;-77
2023/01/27 05:46:28;;;;;;;22.55;12.48;;;;;;;3.97;60.79;100932.00;4907005;29;20079;-77
2023/01/27 05:49:00;;;;;;;19.83;12.65;;;;;;;3.85;61.40;100922.19;4894294;29;20059;-80
2023/01/27 05:51:34;;;;;;;18.40;12.45;;;;;;;3.91;60.98;100927.09;4887058;29;20048;-77
2023/01/27 05:54:03;;;;;;;22.05;12.23;;;;;;;3.83;60.27;100918.78;4918232;28;20518;-78
2023/01/27 05:56:32;;;;;;;19.00;12.25;;;;;;;3.93;60.24;100934.88;4940077;28;20457;-80
2023/01/27 05:58:59;;;;;;;18.48;12.07;;;;;;;3.96;60.21;100930.31;4920873;29;20057;-78
2023/01/27 06:01:29;;;;;;;21.55;11.43;;;;;;;3.93;60.61;100935.75;4907821;29;20066;-79
2023/01/27 06:03:59;;;;;;;19.77;13.05;;;;;;;4.15;59.78;100955.53;4909634;29;20060;-79
2023/01/27 06:06:38;;;;;;;24.23;12.23;;;;;;;3.82;60.49;100906.59;4900945;28;20059;-80
2023/01/27 06:09:10;;;;;;;24.45;12.40;;;;;;;4.10;60.32;100941.81;4886738;29;20593;-76
2023/01/27 06:11:46;;;;;;;19.83;11.63;;;;;;;4.13;60.06;100944.28;4895599;29;20284;-76
2023/01/27 06:14:22;;;;;;;23.30;13.10;;;;;;;3.62;59.88;100879.66;4905724;28;20051;-77
2023/01/27 06:16:53;;;;;;;20.40;12.15;;;;;;;4.11;60.73;100964.53;4912809;28;20073;-77
2023/01/27 06:19:23;;;;;;;20.83;11.80;;;;;;;3.24;60.02;100804.81;4906073;28;20062;-77
2023/01/27 06:21:50;;;;;;;23.73;12.00;;;;;;;4.16;60.13;100959.88;4914166;28;20051;-77
2023/01/27 06:24:16;;;;;;;29.25;12.13;;;;;;;4.13;59.87;100958.28;4918256;28;20059;-79
2023/01/27 06:26:46;;;;;;;22.48;12.57;;;;;;;4.16;59.61;100958.09;4899243;29;20434;-77
2023/01/27 06:29:17;;;;;;;23.15;12.27;;;;;;;4.10;60.25;100962.84;4914312;28;20055;-78
2023/01/27 06:31:46;;;;;;;24.23;12.93;;;;;;;4.06;59.81;100968.28;4945146;28;20098;-80
2023/01/27 06:34:16;;;;;;;20.10;11.75;;;;;;;3.84;60.09;100936.25;4902147;29;20169;-79
2023/01/27 06:36:52;;;;;;;28.35;12.63;;;;;;;3.87;60.59;100953.63;4915052;28;20051;-78
2023/01/27 06:39:19;;;;;;;19.83;12.38;;;;;;;4.05;60.50;100971.84;4898954;29;20050;-77
2023/01/27 06:41:45;;;;;;;24.77;13.32;;;;;;;3.92;60.13;100948.94;4899164;29;20433;-77
2023/01/27 06:44:14;;;;;;;27.48;12.27;;;;;;;3.98;60.48;100970.50;4908504;28;20062;-79
2023/01/27 06:46:43;;;;;;;24.38;13.90;;;;;;;4.03;60.16;100971.06;4904282;29;20624;-77
2023/01/27 06:49:22;;;;;;;22.17;11.68;;;;;;;3.95;60.18;100965.38;4927144;28;20105;-79
2023/01/27 06:52:00;;;;;;;23.90;12.48;;;;;;;4.13;59.71;100967.94;4927467;28;20504;-77
2023/01/27 06:54:27;;;;;;;26.60;13.00;;;;;;;4.01;58.87;100962.44;4919917;28;20051;-78
2023/01/27 06:56:53;;;;;;;25.20;12.88;;;;;;;4.06;59.72;100973.53;4929923;28;20668;-77
2023/01/27 06:59:20;;;;;;;19.02;11.57;;;;;;;4.00;59.83;100952.84;4917446;29;20059;-77
2023/01/27 07:01:53;;;;;;;21.50;13.10;;;;;;;3.89;60.00;100949.97;4908423;29;20591;-77
2023/01/27 07:04:22;;;;;;;23.23;11.73;;;;;;;3.80;59.38;100939.97;4927611;28;20054;-77
2023/01/27 07:07:00;;;;;;;22.45;12.93;;;;;;;3.55;60.42;100915.06;4894001;29;20207;-77
2023/01/27 07:09:32;;;;;;;25.58;12.32;;;;;;;4.01;59.63;100980.81;4928764;28;20106;-80
2023/01/27 07:12:17;;;;;;;22.73;12.63;;;;;;;3.93;60.01;100964.66;4888960;29;20047;-79
2023/01/27 07:14:47;;;;;;;22.15;12.68;;;;;;;4.08;59.67;100997.09;4925221;28;20289;-79
2023/01/27 07:17:19;;;;;;;22.10;12.15;;;;;;;4.10;59.65;100991.72;4904279;29;20051;-80
2023/01/27 07:19:51;;;;;;;27.50;13.55;;;;;;;3.76;59.14;100935.81;4914099;28;20283;-79
2023/01/27 07:22:23;;;;;;;29.00;13.65;;;;;;;4.20;58.60;100995.53;4918659;28;20421;-80
2023/01/27 07:24:49;;;;;;;22.30;11.60;;;;;;;4.07;59.53;100980.47;4926181;28;20057;-79
2023/01/27 07:27:25;;;;;;;25.15;13.18;;;;;;;3.89;58.73;100955.22;4912756;28;20898;-81
2023/01/27 07:29:57;;;;;;;21.20;12.00;;;;;;;3.85;58.29;100943.19;4911967;28;20488;-79
2023/01/27 07:32:25;;;;;;;25.92;12.90;;;;;;;3.95;58.55;100970.63;4913747;28;20385;-77
2023/01/27 07:34:54;;;;;;;16.38;10.65;;;;;;;3.89;57.84;100944.72;4929268;28;20465;-79
2023/01/27 07:37:25;;;;;;;23.10;12.43;;;;;;;4.21;58.03;100999.88;4910794;29;20082;-80
2023/01/27 07:39:52;;;;;;;21.97;11.63;;;;;;;4.25;57.68;101007.50;4893733;29;20435;-79
2023/01/27 07:42:41;;;;;;;29.00;12.68;;;;;;;3.48;57.45;100892.69;4908414;29;20055;-80
2023/01/27 07:45:09;;;;;;;31.80;12.65;;;;;;;4.19;57.11;100993.84;4900810;29;20145;-80
2023/01/27 07:47:36;;;;;;;28.17;12.88;;;;;;;4.00;58.08;100962.50;4916796;28;20429;-80
2023/01/27 07:50:07;;;;;;;22.45;11.93;;;;;;;4.09;57.19;100966.41;4932238;28;20082;-82
2023/01/27 07:52:34;;;;;;;25.50;13.45;;;;;;;3.71;57.44;100901.91;4916625;28;20289;-80
2023/01/27 07:55:01;;;;;;;21.30;12.63;;;;;;;4.34;57.51;101016.63;4917960;28;20050;-81
2023/01/27 07:57:28;;;;;;;18.90;12.13;;;;;;;4.37;57.03;101007.72;4918812;28;20942;-82
2023/01/27 08:00:00;;;;;;;24.67;12.88;;;;;;;4.44;57.22;101017.84;4895255;29;20054;-80
2023/01/27 08:02:30;;;;;;;25.65;12.88;;;;;;;4.42;56.53;101001.31;4885594;28;20047;-80
2023/01/27 08:04:57;;;;;;;23.02;10.88;;;;;;;3.61;56.33;100882.38;4909227;28;20055;-81
2023/01/27 08:07:37;;;;;;;24.88;12.45;;;;;;;4.27;56.19;100984.63;4892866;29;20070;-81
2023/01/27 08:10:14;;;;;;;21.33;12.05;;;;;;;4.43;56.28;100992.47;4881962;29;20056;-82
2023/01/27 08:12:48;;;;;;;24.80;12.32;;;;;;;4.23;55.86;100969.09;4874845;29;20055;-83
2023/01/27 08:15:28;;;;;;;26.42;12.23;;;;;;;4.54;56.29;101004.16;4893974;29;20178;-81
2023/01/27 08:17:57;;;;;;;23.67;12.52;;;;;;;3.71;56.06;100872.19;4906959;29;20078;-78
2023/01/27 08:20:31;;;;;;;21.60;11.90;;;;;;;4.59;56.06;101007.38;4943516;28;20196;-80
2023/01/27 08:23:17;;;;;;;22.92;12.60;;;;;;;4.57;56.08;100994.31;4903257;28;20141;-81
2023/01/27 08:26:07;;;;;;;21.90;12.15;;;;;;;4.66;55.96;101013.97;4898226;28;20047;-81
2023/01/27 08:28:42;;;;;;;23.00;12.98;;;;;;;4.59;55.83;100992.44;4869809;29;20052;-82
2023/01/27 08:31:15;;;;;;;23.10;12.23;;;;;;;4.77;55.01;101027.34;4905909;29;20391;-80
2023/01/27 08:33:56;;;;;;;24.00;12.85;;;;;;;4.75;55.48;101029.22;4911670;28;20416;-80
2023/01/27 08:36:33;;;;;;;22.77;12.35;;;;;;;4.61;55.91;101010.75;4892993;29;20043;-78
2023/01/27 08:39:05;;;;;;;26.67;11.95;;;;;;;4.57;55.51;100993.47;4905504;28;20039;-82
2023/01/27 08:41:46;;;;;;;23.73;13.57;;;;;;;4.80;55.34;101037.69;4888196;29;20074;-81
2023/01/27 08:44:17;;;;;;;19.08;11.75;;;;;;;4.72;55.29;101013.63;4907168;28;20275;-82
2023/01/27 08:46:58;;;;;;;25.67;12.55;;;;;;;4.71;55.76;101006.69;4894240;28;20389;-80
2023/01/27 08:49:39;;;;;;;27.98;13.18;;;;;;;4.76;55.28;101027.44;4912876;29;20475;-81
2023/01/27 08:52:21;;;;;;;26.15;12.38;;;;;;;4.67;55.20;100994.63;4907785;28;20448;-82
2023/01/27 08:55:02;;;;;;;18.17;11.32;;;;;;;4.97;54.99;101041.97;4912333;28;20061;-80
2023/01/27 08:57:44;;;;;;;21.35;11.75;;;;;;;3.99;54.14;100885.47;4917946;28;20082;-83
2023/01/27 09:00:19;;;;;;;23.23;12.77;;;;;;;4.91;55.44;101034.44;4867754;29;20296;-82
2023/01/27 09:02:57;;;;;;;28.05;13.15;;;;;;;4.87;55.10;101017.97;4877005;29;20117;-78
2023/01/27 09:05:38;;;;;;;18.85;10.65;;;;;;;4.72;55.02;100987.31;4899156;29;20705;-81
2023/01/27 09:08:05;;;;;;;21.38;11.85;;;;;;;5.17;54.48;101050.47;4884631;29;20825;-76
2023/01/27 09:10:44;;;;;;;22.40;13.00;;;;;;;4.75;54.99;100960.81;4903617;29;20514;-78
2023/01/27 09:13:27;;;;;;;20.58;11.80;;;;;;;4.90;54.93;101001.16;4894273;29;20355;-78
2023/01/27 09:16:05;;;;;;;23.77;11.67;;;;;;;5.19;54.88;101054.72;4878016;29;20055;-78
2023/01/27 09:18:41;;;;;;;22.30;12.27;;;;;;;5.20;54.39;101043.25;4880365;28;20377;-82
2023/01/27 09:21:15;;;;;;;22.77;12.38;;;;;;;5.01;55.39;101034.75;4893551;29;20417;-78
2023/01/27 09:23:54;;;;;;;20.83;11.25;;;;;;;4.85;55.46;101019.84;4909361;29;20055;-79
2023/01/27 09:26:24;;;;;;;20.63;12.60;;;;;;;5.08;55.21;101046.63;4899672;29;20108;-77
2023/01/27 09:28:51;;;;;;;20.60;12.27;;;;;;;5.07;55.50;101056.31;4901926;29;20056;-79
2023/01/27 09:31:18;;;;;;;18.33;10.43;;;;;;;5.06;55.20;101049.34;4861392;29;20107;-79
2023/01/27 09:34:12;;;;;;;24.05;11.18;;;;;;;5.11;55.77;101063.06;4871091;29;20059;-79
2023/01/27 09:36:52;;;;;;;19.10;11.63;;;;;;;5.12;55.39;101064.78;4900206;29;20143;-79
2023/01/27 09:39:20;;;;;;;21.08;12.40;;;;;;;5.03;54.74;101048.69;4938340;28;20275;-77
2023/01/27 09:42:16;;;;;;;23.77;12.68;;;;;;;4.64;54.99;100986.94;4923093;28;20051;-78
2023/01/27 09:45:10;;;;;;;22.23;12.30;;;;;;;5.10;55.62;101057.91;4923679;29;20473;-77
2023/01/27 09:47:41;;;;;;;21.60;12.07;;;;;;;5.26;54.63;101071.84;4891525;29;20530;-79
2023/01/27 09:50:16;;;;;;;23.80;12.65;;;;;;;5.14;55.25;101056.78;4897715;29;20493;-77
2023/01/27 09:53:13;;;;;;;25.35;12.32;;;;;;;5.24;55.08;101063.22;4910095;28;20549;-78
2023/01/27 09:55:56;;;;;;;22.73;12.02;;;;;;;4.74;55.30;100974.94;4922794;28;20269;-82
2023/01/27 09:59:03;;;;;;;24.17;12.15;;;;;;;5.29;55.79;101069.03;4914827;29;20043;-81
2023/01/27 10:01:38;;;;;;;21.10;12.85;;;;;;;5.24;55.04;101073.75;4901186;29;20075;-81
2023/01/27 10:04:25;;;;;;;22.65;11.90;;;;;;;5.27;55.17;101070.91;4886027;29;1160128;-82
2023/01/27 10:07:12;;;;;;;33.35;12.45;;;;;;;5.30;55.68;101062.00;4920264;28;20432;-79
2023/01/27 10:09:45;;;;;;;19.80;11.57;;;;;;;5.36;55.01;101072.13;4926712;29;20126;-82
2023/01/27 10:12:38;;;;;;;18.25;11.00;;;;;;;5.28;55.02;101064.69;4931683;29;20528;-80
2023/01/27 10:15:31;;;;;;;27.73;12.07;;;;;;;5.35;55.41;101065.19;4918600;29;20119;-80
2023/01/27 10:18:33;;;;;;;18.50;10.98;;;;;;;5.33;55.22;101073.16;4918894;29;20047;-81
2023/01/27 10:21:43;;;;;;;23.58;12.20;;;;;;;4.99;55.54;101026.09;4918888;29;20379;-83
2023/01/27 10:24:20;;;;;;;24.70;11.85;;;;;;;4.55;55.64;100948.00;4914264;29;20086;-83
2023/01/27 10:27:03;;;;;;;24.60;11.98;;;;;;;5.02;55.73;101005.69;4929858;29;20253;-82
2023/01/27 10:29:46;;;;;;;26.92;12.68;;;;;;;5.24;56.09;101042.16;4913955;29;20091;-79
2023/01/27 10:32:51;;;;;;;22.60;12.27;;;;;;;5.49;55.56;101056.47;4912922;29;20051;-80
2023/01/27 10:35:42;;;;;;;23.05;11.82;;;;;;;5.52;55.90;101053.66;4915960;28;20354;-81
2023/01/27 10:38:26;;;;;;;22.90;11.77;;;;;;;5.60;55.99;101051.38;4888217;29;20127;-80
2023/01/27 10:41:19;;;;;;;23.63;12.27;;;;;;;5.38;55.58;100991.28;4861869;29;20852;-82
2023/01/27 10:44:12;;;;;;;17.15;11.93;;;;;;;5.04;55.70;100929.31;4860771;29;20392;-79
2023/01/27 10:46:49;;;;;;;24.00;12.15;;;;;;;5.23;55.38;100935.16;4860555;29;20170;-81
2023/01/27 10:49:40;;;;;;;24.10;11.45;;;;;;;5.99;55.01;101026.19;4879012;29;20254;-81
2023/01/27 10:52:19;;;;;;;18.42;11.15;;;;;;;6.18;54.75;101045.16;4886527;29;20242;-80
2023/01/27 10:55:33;;;;;;;19.48;11.52;;;;;;;6.39;54.73;101047.38;4894628;29;20263;-78
2023/01/27 10:58:32;;;;;;;24.23;12.13;;;;;;;6.70;53.75;101024.25;4916509;28;20181;-79
2023/01/27 11:01:20;;;;;;;19.20;10.90;;;;;;;7.01;52.95;101033.63;4883815;29;20183;-78
2023/01/27 11:04:41;;;;;;;22.67;10.70;;;;;;;7.37;51.88;101025.00;4899122;29;20093;-80
2023/01/27 11:07:21;;;;;;;20.45;11.23;;;;;;;7.09;52.06;100964.47;4895413;29;20112;-79
2023/01/27 11:10:07;;;;;;;18.60;11.00;;;;;;;7.35;51.03;101004.94;4897428;29;20051;-78
2023/01/27 11:12:48;;;;;;;19.92;10.50;;;;;;;7.36;51.79;101022.50;4926965;29;20051;-78
2023/01/27 11:15:32;;;;;;;16.17;9.90;;;;;;;7.20;51.25;101022.69;4915027;29;20070;-80
2023/01/27 11:18:25;;;;;;;17.70;10.48;;;;;;;7.12;51.63;101022.38;4896170;29;20232;-82
2023/01/27 11:20:56;;;;;;;20.45;11.52;;;;;;;6.96;52.20;101031.28;4901088;29;20044;-80
2023/01/27 11:23:27;;;;;;;20.77;10.73;;;;;;;6.45;52.49;100946.75;4897228;29;20063;-79
2023/01/27 11:26:26;;;;;;;20.08;10.77;;;;;;;6.93;53.31;101025.41;4907346;29;20228;-81
2023/01/27 11:29:33;;;;;;;23.90;9.90;;;;;;;7.05;52.94;101019.28;4873856;29;20151;-79
2023/01/27 11:32:36;;;;;;;18.63;10.45;;;;;;;7.07;52.01;101012.97;4903376;28;20463;-81
2023/01/27 11:35:27;;;;;;;17.35;9.98;;;;;;;6.93;52.31;100976.09;4862792;29;20075;-78
2023/01/27 11:38:04;;;;;;;20.42;9.55;;;;;;;6.99;52.61;100978.31;4875451;29;20180;-82
2023/01/27 11:40:45;;;;;;;19.77;10.10;;;;;;;7.16;52.45;100993.00;4868964;29;20055;-80
2023/01/27 11:43:30;;;;;;;16.23;9.07;;;;;;;6.85;51.97;100949.38;4873062;29;20056;-81
2023/01/27 11:46:22;;;;;;;17.05;9.32;;;;;;;7.19;51.90;100999.88;4870324;29;20305;-78
2023/01/27 11:49:00;;;;;;;15.68;8.13;;;;;;;7.07;51.62;100962.78;4863679;29;20300;-80
2023/01/27 11:51:38;;;;;;;17.52;8.23;;;;;;;7.04;51.67;100963.00;4883403;29;20051;-79
2023/01/27 11:54:26;;;;;;;15.30;8.23;;;;;;;7.16;51.83;100995.66;4914170;29;20485;-81
2023/01/27 11:56:57;;;;;;;15.60;8.95;;;;;;;6.12;51.95;100824.13;4910015;28;20137;-81
2023/01/27 11:59:46;;;;;;;14.52;8.43;;;;;;;7.04;52.09;100978.84;4873214;29;20597;-80
2023/01/27 12:02:53;;;;;;;12.63;8.00;;;;;;;7.14;52.09;100980.88;4873353;29;20434;-79
2023/01/27 12:05:51;;;;;;;15.63;7.93;;;;;;;7.19;51.65;100976.13;4899434;29;20063;-74
2023/01/27 12:08:41;;;;;;;14.18;7.03;;;;;;;6.94;51.72;100943.47;4907749;29;20051;-78
2023/01/27 12:11:31;;;;;;;16.30;6.97;;;;;;;6.71;52.33;100907.25;4908832;29;20405;-77
2023/01/27 12:14:08;;;;;;;12.60;6.85;;;;;;;6.73;52.24;100887.72;4916269;28;20043;-76
2023/01/27 12:16:52;;;;;;;13.27;6.65;;;;;;;6.97;51.71;100929.22;4934914;28;20051;-77
2023/01/27 12:19:41;;;;;;;18.70;7.27;;;;;;;7.09;51.92;100956.56;4929793;28;20047;-79
2023/01/27 12:22:37;;;;;;;14.25;6.93;;;;;;;7.16;51.54;100947.25;4928736;28;20389;-78
2023/01/27 12:25:47;;;;;;;14.18;6.32;;;;;;;7.21;51.71;100953.09;4914311;28;20130;-80
2023/01/27 12:29:04;;;;;;;11.13;6.95;;;;;;;7.19;52.19;100947.06;4823150;29;20669;-79
2023/01/27 12:31:45;;;;;;;12.57;6.13;;;;;;;7.06;52.10;100925.94;4825461;29;20042;-75
2023/01/27 12:34:24;;;;;;;14.32;6.53;;;;;;;7.09;51.82;100895.81;4831708;29;20045;-78
2023/01/27 12:36:55;;;;;;;13.07;6.65;;;;;;;7.29;52.22;100911.13;4903449;28;20638;-79
2023/01/27 12:39:40;;;;;;;16.65;6.50;;;;;;;7.44;51.56;100932.97;4909124;28;20174;-80
2023/01/27 12:42:46;;;;;;;11.90;6.30;;;;;;;7.47;51.22;100935.41;4940510;28;20054;-79